createdAt,value
2023-02-21T00:01:10.436Z,7.13
2023-02-21T00:06:31.243Z,6.27
2023-02-21T00:11:52.271Z,6.28
2023-02-21T00:17:13.553Z,5.28
2023-02-21T00:22:35.314Z,5.50
2023-02-21T00:27:56.085Z,5.63
2023-02-21T00:33:17.018Z,6.90
2023-02-21T00:38:37.847Z,5.55
2023-02-21T00:43:58.891Z,6.90
2023-02-21T00:49:20.350Z,4.63
2023-02-21T00:54:41.554Z,5.38
2023-02-21T01:00:05.145Z,4.10
2023-02-21T01:05:26.841Z,4.80
2023-02-21T01:10:47.876Z,5.32
2023-02-21T01:16:09.366Z,5.03
2023-02-21T01:21:38.904Z,5.28
2023-02-21T01:27:00.108Z,4.90
2023-02-21T01:32:20.959Z,4.95
2023-02-21T01:37:42.233Z,5.53
2023-02-21T01:43:04.229Z,7.57
2023-02-21T01:48:27.315Z,5.38
2023-02-21T01:53:49.501Z,5.87
2023-02-21T01:59:13.883Z,6.20
2023-02-21T02:04:35.046Z,6.88
2023-02-21T02:09:56.320Z,6.50
2023-02-21T02:15:13.255Z,6.40
2023-02-21T02:20:40.904Z,5.10
2023-02-21T02:26:21.094Z,5.05
2023-02-21T02:31:43.339Z,5.40
2023-02-21T02:37:13.709Z,5.53
2023-02-21T02:42:40.708Z,5.88
2023-02-21T02:47:50.897Z,8.27
2023-02-21T02:52:55.908Z,5.80
2023-02-21T02:58:03.779Z,5.97
2023-02-21T03:03:37.463Z,7.00
2023-02-21T03:08:57.518Z,6.22
2023-02-21T03:14:13.721Z,9.80
2023-02-21T03:19:39.245Z,6.55
2023-02-21T03:24:44.789Z,8.05
2023-02-21T03:30:08.720Z,7.03
2023-02-21T03:35:11.499Z,7.88
2023-02-21T03:40:24.918Z,8.10
2023-02-21T03:45:28.998Z,6.72
2023-02-21T03:50:42.494Z,7.45
2023-02-21T03:55:45.635Z,7.70
2023-02-21T04:00:57.420Z,7.95
2023-02-21T04:06:00.447Z,7.40
2023-02-21T04:11:04.515Z,9.38
2023-02-21T04:21:33.384Z,10.20
2023-02-21T04:26:36.597Z,9.68
2023-02-21T04:31:40.601Z,11.23
2023-02-21T04:36:48.139Z,8.70
2023-02-21T04:41:53.298Z,15.25
2023-02-21T04:46:56.019Z,11.17
2023-02-21T04:52:01.376Z,10.52
2023-02-21T04:57:03.943Z,12.00
2023-02-21T05:02:06.770Z,12.43
2023-02-21T05:07:09.521Z,13.20
2023-02-21T05:12:12.360Z,13.33
2023-02-21T05:17:14.913Z,10.18
2023-02-21T05:22:20.717Z,8.20
2023-02-21T05:27:25.700Z,11.63
2023-02-21T05:32:31.184Z,10.82
2023-02-21T05:37:33.901Z,7.43
2023-02-21T05:42:36.483Z,9.80
2023-02-21T05:47:39.046Z,7.07
2023-02-21T05:52:41.525Z,10.02
2023-02-21T05:57:44.294Z,7.28
2023-02-21T06:02:47.280Z,5.90
2023-02-21T06:07:50.202Z,7.53
2023-02-21T06:12:52.865Z,7.50
2023-02-21T06:17:55.327Z,6.97
2023-02-21T06:22:57.908Z,7.88
2023-02-21T06:28:00.556Z,4.53
2023-02-21T06:33:03.373Z,6.25
2023-02-21T06:38:08.817Z,6.00
2023-02-21T06:43:11.441Z,6.85
2023-02-21T06:48:18.509Z,5.20
2023-02-21T06:53:21.050Z,9.23
2023-02-21T06:58:25.201Z,9.77
2023-02-21T07:03:28.501Z,6.32
2023-02-21T07:08:31.130Z,7.32
2023-02-21T07:13:34.590Z,6.00
2023-02-21T07:18:37.133Z,5.83
2023-02-21T07:23:40.211Z,5.97
2023-02-21T07:28:44.575Z,6.18
2023-02-21T07:33:47.348Z,7.45
2023-02-21T07:38:52.174Z,5.88
2023-02-21T07:43:57.130Z,6.80
2023-02-21T07:48:59.758Z,7.78
2023-02-21T07:54:03.577Z,7.22
2023-02-21T07:59:06.973Z,6.78
2023-02-21T08:04:10.963Z,6.03
2023-02-21T08:09:16.725Z,6.63
2023-02-21T08:14:19.482Z,6.88
2023-02-21T08:19:22.362Z,11.13
2023-02-21T08:24:27.712Z,9.98
2023-02-21T08:29:30.452Z,8.43
2023-02-21T08:34:33.023Z,7.37
2023-02-21T08:39:36.261Z,9.73
2023-02-21T08:44:40.477Z,14.73
2023-02-21T08:49:49.726Z,9.70
2023-02-21T08:54:52.378Z,10.90
2023-02-21T08:59:55.157Z,7.60
2023-02-21T09:05:01.108Z,8.45
2023-02-21T09:10:05.383Z,6.43
2023-02-21T09:15:09.654Z,7.18
2023-02-21T09:20:18.373Z,6.88
2023-02-21T09:25:24.883Z,7.43
2023-02-21T09:30:31.982Z,8.98
2023-02-21T09:35:35.554Z,9.90
2023-02-21T09:40:59.132Z,8.55
2023-02-21T09:46:12.802Z,9.10
2023-02-21T09:51:17.282Z,9.33
2023-02-21T09:56:29.928Z,9.48
2023-02-21T10:01:54.278Z,7.20
2023-02-21T10:07:38.750Z,8.07
2023-02-21T10:12:52.814Z,9.05
2023-02-21T10:18:19.640Z,8.23
2023-02-21T10:23:49.422Z,6.25
2023-02-21T10:28:56.458Z,7.07
2023-02-21T10:34:01.155Z,6.50
2023-02-21T10:39:21.721Z,5.68
2023-02-21T10:44:31.213Z,5.17
2023-02-21T10:49:47.261Z,6.05
2023-02-21T10:55:06.204Z,4.40
2023-02-21T11:00:20.280Z,5.85
2023-02-21T11:05:24.508Z,4.25
2023-02-21T11:10:31.503Z,3.60
2023-02-21T11:15:34.821Z,3.60
2023-02-21T11:20:38.167Z,2.25
2023-02-21T11:25:41.150Z,2.00
2023-02-21T11:31:21.939Z,2.28
2023-02-21T11:36:36.409Z,2.67
2023-02-21T11:41:49.223Z,2.05
2023-02-21T11:47:05.350Z,2.33
2023-02-21T11:52:13.745Z,3.03
2023-02-21T11:57:45.390Z,2.63
2023-02-21T12:03:08.145Z,3.07
2023-02-21T12:08:35.729Z,2.85
2023-02-21T12:13:59.969Z,2.78
2023-02-21T12:19:11.481Z,3.42
2023-02-21T12:24:21.384Z,3.95
2023-02-21T12:29:23.759Z,4.43
2023-02-21T12:35:04.868Z,4.28
2023-02-21T12:40:34.248Z,4.82
2023-02-21T12:46:02.923Z,4.20
2023-02-21T12:51:20.821Z,5.47
2023-02-21T12:56:33.500Z,5.07
2023-02-21T13:01:43.641Z,5.53
2023-02-21T13:06:57.547Z,5.60
2023-02-21T13:12:14.083Z,6.88
2023-02-21T13:17:18.517Z,6.05
2023-02-21T13:23:16.702Z,6.87
2023-02-21T13:28:39.722Z,7.18
2023-02-21T13:33:45.257Z,6.18
2023-02-21T13:39:00.017Z,6.75
2023-02-21T13:44:08.476Z,6.38
2023-02-21T13:49:38.525Z,5.73
2023-02-21T13:55:15.725Z,7.05
2023-02-21T14:00:21.419Z,6.72
2023-02-21T14:05:25.295Z,6.53
2023-02-21T14:10:37.315Z,9.10
2023-02-21T14:15:43.469Z,7.37
2023-02-21T14:20:49.637Z,8.73
2023-02-21T14:26:05.239Z,9.40
2023-02-21T14:31:12.440Z,10.45
2023-02-21T14:36:19.020Z,7.82
2023-02-21T14:41:53.660Z,8.00
2023-02-21T14:47:14.680Z,7.93
2023-02-21T14:52:35.813Z,8.75
2023-02-21T14:58:07.064Z,10.55
2023-02-21T15:03:22.347Z,9.02
2023-02-21T15:08:26.447Z,9.20
2023-02-21T15:13:35.270Z,9.82
2023-02-21T15:18:42.925Z,8.90
2023-02-21T15:23:47.643Z,10.68
2023-02-21T15:29:08.328Z,9.27
2023-02-21T15:34:23.780Z,10.23
2023-02-21T15:39:38.919Z,9.25
2023-02-21T15:44:51.276Z,10.45
2023-02-21T15:50:14.345Z,8.98
2023-02-21T15:55:21.018Z,9.63
2023-02-21T16:00:41.187Z,10.83
2023-02-21T16:05:43.767Z,8.55
2023-02-21T16:10:46.630Z,11.82
2023-02-21T16:15:49.613Z,9.20
2023-02-21T16:21:00.857Z,9.10
2023-02-21T16:26:09.612Z,9.90
2023-02-21T16:31:26.597Z,11.27
2023-02-21T16:36:31.647Z,7.78
2023-02-21T16:41:34.120Z,10.75
2023-02-21T16:46:36.820Z,7.70
2023-02-21T16:51:43.859Z,9.03
2023-02-21T16:56:49.372Z,9.02
2023-02-21T17:01:52.107Z,10.00
2023-02-21T17:07:15.045Z,11.30
2023-02-21T17:12:17.564Z,10.85
2023-02-21T17:17:20.059Z,8.53
2023-02-21T17:22:22.486Z,9.85
2023-02-21T17:27:25.054Z,8.27
2023-02-21T17:32:27.630Z,7.78
2023-02-21T17:37:30.572Z,8.52
2023-02-21T17:42:35.416Z,9.30
2023-02-21T17:47:38.539Z,7.68
2023-02-21T17:52:42.036Z,9.18
2023-02-21T17:57:44.624Z,7.18
2023-02-21T18:02:48.227Z,6.80
2023-02-21T18:08:09.202Z,7.87
2023-02-21T18:13:11.685Z,5.78
2023-02-21T18:18:14.815Z,6.60
2023-02-21T18:23:17.444Z,6.05
2023-02-21T18:28:20.801Z,5.75
2023-02-21T18:33:27.483Z,7.17
2023-02-21T18:38:30.145Z,6.43
2023-02-21T18:43:32.656Z,3.83
2023-02-21T18:48:35.194Z,4.85
2023-02-21T18:53:38.161Z,4.57
2023-02-21T18:58:40.853Z,3.83
2023-02-21T19:03:43.419Z,5.60
2023-02-21T19:08:47.084Z,4.68
2023-02-21T19:13:50.629Z,3.45
2023-02-21T19:18:57.089Z,6.88
2023-02-21T19:24:03.158Z,5.33
2023-02-21T19:29:05.759Z,7.38
2023-02-21T19:34:10.539Z,6.40
2023-02-21T19:39:13.086Z,7.45
2023-02-21T19:44:15.831Z,5.82
2023-02-21T19:49:18.415Z,6.60
2023-02-21T19:54:30.187Z,6.57
2023-02-21T19:59:34.263Z,6.25
2023-02-21T20:04:36.852Z,8.07
2023-02-21T20:09:40.054Z,6.30
2023-02-21T20:14:46.349Z,7.47
2023-02-21T20:19:48.898Z,7.10
2023-02-21T20:24:51.503Z,6.32
2023-02-21T20:29:57.205Z,5.53
2023-02-21T20:35:02.133Z,4.13
2023-02-21T20:40:08.415Z,7.00
2023-02-21T20:45:11.673Z,7.95
2023-02-21T20:50:17.269Z,7.20
2023-02-21T20:55:22.525Z,5.20
2023-02-21T21:00:28.377Z,6.35
2023-02-21T21:05:31.855Z,6.50
2023-02-21T21:10:35.166Z,7.28
2023-02-21T21:15:37.737Z,4.70
2023-02-21T21:20:41.571Z,4.00
2023-02-21T21:25:44.131Z,4.65
2023-02-21T21:30:47.203Z,7.57
2023-02-21T21:35:49.672Z,8.02
2023-02-21T21:40:53.350Z,5.05
2023-02-21T21:45:55.999Z,5.25
2023-02-21T21:50:58.671Z,3.45
2023-02-21T21:56:04.904Z,3.67
2023-02-21T22:01:07.382Z,2.70
2023-02-21T22:06:11.271Z,3.03
2023-02-21T22:11:14.023Z,3.05
2023-02-21T22:16:16.736Z,3.47
2023-02-21T22:21:22.595Z,4.67
2023-02-21T22:26:26.653Z,4.50
2023-02-21T22:31:29.199Z,6.07
2023-02-21T22:36:32.152Z,4.40
2023-02-21T22:41:40.141Z,6.68
2023-02-21T22:46:59.618Z,4.73
2023-02-21T22:52:04.368Z,4.78
2023-02-21T22:57:09.462Z,5.63
2023-02-21T23:02:13.101Z,6.82
2023-02-21T23:07:15.931Z,5.20
2023-02-21T23:12:18.686Z,6.97
2023-02-21T23:17:21.197Z,6.22
2023-02-21T23:22:25.438Z,7.18
2023-02-21T23:27:27.811Z,5.90
2023-02-21T23:32:30.405Z,5.63
2023-02-21T23:37:32.892Z,7.27
2023-02-21T23:42:35.342Z,5.95
2023-02-21T23:47:39.658Z,4.70
2023-02-21T23:52:42.381Z,5.55
2023-02-21T23:57:46.650Z,6.63
